Time;durP1;ratioP1;P1;durP2;ratioP2;P2;SDS_P1;SDS_P2;PMS_P1;PMS_P2;Temp;Humidity;BMP_temperature;BMP_pressure;BME280_temperature;BME280_humidity;BME280_pressure;Samples;Min_cycle;Max_cycle;Signal;HPM_P1;HPM_P2
2022/02/22 00:00:11;;;;;;;0.80;0.30;;;22.10;32.00;;;;;;5093140;28;20555;-72
2022/02/22 00:02:36;;;;;;;0.60;0.30;;;22.20;31.90;;;;;;5093232;28;20867;-72
2022/02/22 00:05:03;;;;;;;1.00;0.40;;;22.20;31.90;;;;;;5092866;28;20401;-72
2022/02/22 00:07:29;;;;;;;0.90;0.50;;;22.10;31.90;;;;;;5094368;28;20408;-72
2022/02/22 00:09:56;;;;;;;0.70;0.30;;;22.10;31.90;;;;;;5094147;28;20396;-72
2022/02/22 00:12:22;;;;;;;0.82;0.40;;;22.10;31.80;;;;;;5094272;28;20412;-72
2022/02/22 00:14:48;;;;;;;1.00;0.50;;;22.10;31.80;;;;;;5094083;28;20397;-72
2022/02/22 00:17:14;;;;;;;0.85;0.40;;;22.10;31.90;;;;;;5093959;28;20418;-72
2022/02/22 00:19:40;;;;;;;0.70;0.40;;;22.10;31.80;;;;;;5094312;28;20818;-71
2022/02/22 00:22:06;;;;;;;0.77;0.38;;;22.10;31.70;;;;;;5094075;28;20444;-72
2022/02/22 00:24:32;;;;;;;1.10;0.45;;;22.10;31.80;;;;;;5095690;28;20383;-72
2022/02/22 00:26:58;;;;;;;0.80;0.40;;;22.00;31.70;;;;;;5093565;28;20382;-72
2022/02/22 00:29:24;;;;;;;1.17;0.40;;;22.00;31.70;;;;;;5094277;28;20866;-72
2022/02/22 00:31:50;;;;;;;0.75;0.38;;;22.00;31.60;;;;;;5094075;28;20443;-72
2022/02/22 00:34:16;;;;;;;1.25;0.40;;;22.00;32.40;;;;;;5092708;28;20767;-72
2022/02/22 00:36:43;;;;;;;1.20;0.40;;;22.00;31.70;;;;;;5093949;28;20470;-72
2022/02/22 00:39:10;;;;;;;0.88;0.50;;;22.00;31.70;;;;;;5093341;28;20394;-72
2022/02/22 00:41:36;;;;;;;1.08;0.50;;;22.00;31.70;;;;;;5093754;28;20510;-72
2022/02/22 00:44:02;;;;;;;1.25;0.60;;;22.00;31.60;;;;;;5093959;28;20721;-72
2022/02/22 00:46:28;;;;;;;0.70;0.30;;;22.00;32.30;;;;;;5093016;28;20875;-72
2022/02/22 00:48:54;;;;;;;0.80;0.35;;;22.00;31.70;;;;;;5093157;28;20396;-72
2022/02/22 00:51:20;;;;;;;0.73;0.30;;;22.00;31.60;;;;;;5093556;28;20390;-72
2022/02/22 00:53:45;;;;;;;0.70;0.40;;;22.00;31.60;;;;;;5092241;28;20420;-72
2022/02/22 00:56:11;;;;;;;0.80;0.30;;;22.00;31.50;;;;;;5092323;28;20436;-72
2022/02/22 00:58:36;;;;;;;0.80;0.35;;;21.90;31.60;;;;;;5092208;28;20431;-72
2022/02/22 01:01:02;;;;;;;0.80;0.40;;;21.90;31.60;;;;;;5092890;28;20433;-72
2022/02/22 01:03:28;;;;;;;0.85;0.32;;;22.00;31.70;;;;;;5093605;28;20435;-72
2022/02/22 01:05:54;;;;;;;1.05;0.30;;;21.90;31.60;;;;;;5094131;28;20875;-71
2022/02/22 01:08:20;;;;;;;0.67;0.37;;;21.90;31.60;;;;;;5093280;28;20542;-72
2022/02/22 01:10:45;;;;;;;0.98;0.40;;;21.90;31.70;;;;;;5092640;28;20390;-72
2022/02/22 01:13:11;;;;;;;0.90;0.30;;;21.90;31.70;;;;;;5092290;28;20439;-72
2022/02/22 01:15:37;;;;;;;0.95;0.45;;;21.90;31.70;;;;;;5091713;28;20417;-72
2022/02/22 01:18:02;;;;;;;0.95;0.43;;;21.90;31.80;;;;;;5092438;28;20447;-72
2022/02/22 01:20:28;;;;;;;1.55;0.50;;;21.90;31.70;;;;;;5091543;28;20401;-72
2022/02/22 01:22:56;;;;;;;1.07;0.40;;;21.90;31.70;;;;;;5092462;28;20462;-72
2022/02/22 01:25:23;;;;;;;0.60;0.30;;;21.90;31.70;;;;;;5092983;28;20393;-72
2022/02/22 01:27:48;;;;;;;0.80;0.30;;;21.90;31.90;;;;;;5093017;28;20385;-72
2022/02/22 01:30:14;;;;;;;1.02;0.40;;;21.90;31.80;;;;;;5092725;28;20386;-72
2022/02/22 01:32:40;;;;;;;1.35;0.60;;;21.90;31.80;;;;;;5092896;28;20386;-72
2022/02/22 01:35:06;;;;;;;1.40;0.50;;;21.90;31.80;;;;;;5092335;28;20393;-72
2022/02/22 01:37:32;;;;;;;0.83;0.50;;;21.90;31.80;;;;;;5091499;28;20398;-72
2022/02/22 01:39:58;;;;;;;1.13;0.60;;;21.90;31.80;;;;;;5091454;28;20447;-72
2022/02/22 01:42:24;;;;;;;0.80;0.40;;;21.80;31.80;;;;;;5092535;28;20828;-72
2022/02/22 01:44:50;;;;;;;1.47;0.60;;;21.90;31.90;;;;;;5092246;28;20475;-72
2022/02/22 01:47:16;;;;;;;1.55;0.50;;;21.80;31.80;;;;;;5092203;28;20469;-72
2022/02/22 01:49:46;;;;;;;1.30;0.50;;;21.80;31.80;;;;;;5092041;28;20470;-72
2022/02/22 01:52:12;;;;;;;1.33;0.55;;;21.80;31.80;;;;;;5091934;28;20420;-72
2022/02/22 01:54:38;;;;;;;1.10;0.60;;;21.90;31.90;;;;;;5092185;28;20382;-72
2022/02/22 01:57:05;;;;;;;1.13;0.60;;;21.80;31.70;;;;;;5090484;28;20500;-72
2022/02/22 01:59:31;;;;;;;1.45;0.60;;;21.80;31.70;;;;;;5091010;28;20386;-72
2022/02/22 02:01:57;;;;;;;0.93;0.50;;;21.80;31.80;;;;;;5091946;28;20401;-72
2022/02/22 02:04:29;;;;;;;1.30;0.50;;;21.80;31.80;;;;;;5090847;28;20382;-72
2022/02/22 02:06:56;;;;;;;0.70;0.50;;;21.80;31.70;;;;;;5091010;28;20764;-72
2022/02/22 02:09:22;;;;;;;1.55;0.57;;;21.80;31.70;;;;;;5092105;28;20382;-72
2022/02/22 02:11:56;;;;;;;1.15;0.60;;;21.80;31.70;;;;;;5092522;28;20393;-72
2022/02/22 02:14:24;;;;;;;1.70;0.60;;;21.80;31.70;;;;;;5091765;28;21124;-72
2022/02/22 02:16:50;;;;;;;1.17;0.68;;;21.80;31.60;;;;;;5090683;28;20430;-72
2022/02/22 02:19:18;;;;;;;0.93;0.50;;;21.80;31.70;;;;;;5090127;28;21240;-72
2022/02/22 02:21:44;;;;;;;1.38;0.60;;;21.80;31.90;;;;;;5091948;28;20409;-72
2022/02/22 02:24:19;;;;;;;0.93;0.43;;;21.80;31.60;;;;;;5091879;28;20430;-72
2022/02/22 02:26:46;;;;;;;1.55;0.50;;;21.80;31.70;;;;;;5091907;28;20374;-72
2022/02/22 02:29:15;;;;;;;1.90;0.50;;;22.40;32.00;;;;;;5089962;28;20390;-72
2022/02/22 02:31:43;;;;;;;1.40;0.60;;;21.80;31.60;;;;;;5091759;28;20398;-72
2022/02/22 02:34:11;;;;;;;1.23;0.52;;;21.80;31.60;;;;;;5090428;28;20389;-72
2022/02/22 02:36:39;;;;;;;1.48;0.60;;;21.80;31.70;;;;;;5090548;28;20427;-72
2022/02/22 02:39:06;;;;;;;1.27;0.50;;;21.80;31.70;;;;;;5091423;28;20469;-72
2022/02/22 02:41:32;;;;;;;1.10;0.60;;;21.80;31.70;;;;;;5090266;28;20392;-72
2022/02/22 02:44:05;;;;;;;0.82;0.50;;;21.70;31.70;;;;;;5091568;28;20439;-72
2022/02/22 02:46:32;;;;;;;1.23;0.50;;;21.80;31.70;;;;;;5091432;28;20480;-72
2022/02/22 02:48:58;;;;;;;1.60;0.60;;;21.80;31.60;;;;;;5091050;28;20382;-72
2022/02/22 02:51:24;;;;;;;1.20;0.60;;;21.70;31.50;;;;;;5090602;28;20401;-72
2022/02/22 02:53:51;;;;;;;0.95;0.52;;;21.70;31.60;;;;;;5090109;28;20397;-72
2022/02/22 02:56:22;;;;;;;1.05;0.50;;;21.70;31.60;;;;;;5089944;28;20933;-71
2022/02/22 02:58:52;;;;;;;0.90;0.50;;;21.70;31.50;;;;;;5090300;28;20394;-72
2022/02/22 03:01:20;;;;;;;1.30;0.60;;;21.70;31.50;;;;;;5091031;28;20382;-72
2022/02/22 03:03:46;;;;;;;1.20;0.50;;;21.70;31.60;;;;;;5091357;28;20882;-72
2022/02/22 03:06:11;;;;;;;0.95;0.50;;;21.70;31.60;;;;;;5089941;28;20378;-72
2022/02/22 03:08:37;;;;;;;1.02;0.50;;;21.70;32.20;;;;;;5092527;28;20463;-72
2022/02/22 03:11:03;;;;;;;1.30;0.60;;;21.70;31.60;;;;;;5094790;28;20386;-72
2022/02/22 03:13:29;;;;;;;1.50;0.70;;;21.70;31.60;;;;;;5095470;28;20683;-72
2022/02/22 03:15:55;;;;;;;1.00;0.50;;;21.70;31.70;;;;;;5094073;28;20460;-72
2022/02/22 03:18:20;;;;;;;0.90;0.40;;;21.70;31.60;;;;;;5094067;28;20466;-72
2022/02/22 03:20:46;;;;;;;1.58;0.60;;;21.80;31.60;;;;;;5095335;28;20382;-72
2022/02/22 03:23:12;;;;;;;1.85;0.60;;;21.70;31.60;;;;;;5094252;28;20389;-72
2022/02/22 03:25:38;;;;;;;1.25;0.63;;;21.80;31.50;;;;;;5094092;28;20477;-72
2022/02/22 03:28:07;;;;;;;1.50;0.50;;;21.80;31.50;;;;;;5095225;28;20452;-72
2022/02/22 03:30:33;;;;;;;0.73;0.40;;;21.80;31.50;;;;;;5095371;28;20386;-72
2022/02/22 03:32:59;;;;;;;1.70;0.50;;;21.70;31.50;;;;;;5094896;28;20393;-72
2022/02/22 03:35:25;;;;;;;1.75;0.73;;;21.70;31.60;;;;;;5093525;28;20390;-72
2022/02/22 03:37:51;;;;;;;1.05;0.60;;;21.70;31.60;;;;;;5093792;28;20469;-72
2022/02/22 03:40:17;;;;;;;0.97;0.60;;;21.70;31.60;;;;;;5094925;28;20894;-72
2022/02/22 03:42:44;;;;;;;1.27;0.57;;;21.70;31.60;;;;;;5094812;28;20443;-72
2022/02/22 03:45:11;;;;;;;1.45;0.60;;;21.70;31.60;;;;;;5092875;28;20450;-72
2022/02/22 03:47:38;;;;;;;1.08;0.50;;;21.70;31.60;;;;;;5093656;28;20780;-72
2022/02/22 03:50:08;;;;;;;0.93;0.40;;;21.70;31.70;;;;;;5094817;28;20397;-72
2022/02/22 03:52:34;;;;;;;1.38;0.50;;;21.70;31.70;;;;;;5094802;28;20378;-72
2022/02/22 03:55:01;;;;;;;1.23;0.50;;;21.70;31.70;;;;;;5093187;28;20402;-72
2022/02/22 03:57:26;;;;;;;1.00;0.40;;;21.70;31.70;;;;;;5094485;28;20421;-72
2022/02/22 03:59:52;;;;;;;0.75;0.45;;;21.70;31.80;;;;;;5094756;28;20524;-72
2022/02/22 04:02:18;;;;;;;1.20;0.53;;;21.70;31.70;;;;;;5094450;28;20867;-72
2022/02/22 04:04:44;;;;;;;1.42;0.50;;;21.70;31.80;;;;;;5095685;28;20374;-73
2022/02/22 04:07:09;;;;;;;2.95;0.40;;;21.80;32.00;;;;;;5094042;28;20393;-73
2022/02/22 04:09:35;;;;;;;1.83;0.60;;;21.80;31.90;;;;;;5094514;28;20404;-73
2022/02/22 04:12:01;;;;;;;2.40;0.60;;;21.90;32.20;;;;;;5093572;28;20790;-72
2022/02/22 04:14:26;;;;;;;2.07;0.50;;;22.00;32.10;;;;;;5093928;28;20394;-72
2022/02/22 04:16:52;;;;;;;3.35;0.85;;;22.10;32.80;;;;;;5092704;28;20433;-73
2022/02/22 04:19:18;;;;;;;3.33;0.83;;;22.10;34.30;;;;;;5093135;28;20842;-73
2022/02/22 04:21:43;;;;;;;3.03;0.60;;;22.20;34.50;;;;;;5093970;28;20440;-72
2022/02/22 04:24:09;;;;;;;5.87;0.80;;;22.20;34.40;;;;;;5094214;28;20397;-73
2022/02/22 04:26:35;;;;;;;4.07;0.65;;;22.30;34.50;;;;;;5093541;28;20414;-73
2022/02/22 04:29:00;;;;;;;3.30;0.67;;;22.30;34.40;;;;;;5095603;28;20871;-72
2022/02/22 04:31:27;;;;;;;5.97;0.60;;;22.30;34.00;;;;;;5093691;28;20439;-72
2022/02/22 04:33:54;;;;;;;5.15;0.73;;;22.30;34.40;;;;;;5094061;28;20397;-72
2022/02/22 04:36:19;;;;;;;6.53;0.90;;;22.30;34.40;;;;;;5093769;28;20906;-72
2022/02/22 04:38:45;;;;;;;7.22;0.85;;;22.30;35.00;;;;;;5092474;28;20393;-71
2022/02/22 04:41:11;;;;;;;4.45;0.60;;;22.30;34.90;;;;;;5093297;28;20556;-73
2022/02/22 04:43:37;;;;;;;3.95;0.75;;;22.30;34.60;;;;;;5092436;28;20393;-72
2022/02/22 04:46:03;;;;;;;4.33;0.70;;;22.30;34.70;;;;;;5093540;28;20402;-72
2022/02/22 04:48:29;;;;;;;6.47;0.85;;;22.30;34.70;;;;;;5093134;28;20378;-72
2022/02/22 04:50:55;;;;;;;4.05;0.60;;;22.40;34.90;;;;;;5092249;28;20459;-72
2022/02/22 04:53:20;;;;;;;6.40;0.60;;;22.40;34.70;;;;;;5092634;28;20443;-73
2022/02/22 04:55:46;;;;;;;5.45;0.80;;;22.40;34.90;;;;;;5091951;28;20741;-72
2022/02/22 04:58:12;;;;;;;3.40;0.70;;;22.30;34.70;;;;;;5093070;28;20398;-72
2022/02/22 05:00:37;;;;;;;2.03;0.60;;;22.30;34.60;;;;;;5091893;28;20374;-72
2022/02/22 05:03:03;;;;;;;3.23;0.60;;;22.30;34.20;;;;;;5093108;28;20398;-72
2022/02/22 05:05:29;;;;;;;4.95;0.65;;;22.30;33.50;;;;;;5093345;28;20479;-72
2022/02/22 05:07:55;;;;;;;4.30;0.70;;;22.30;33.90;;;;;;5092355;28;20418;-72
2022/02/22 05:10:20;;;;;;;5.40;0.70;;;22.20;34.20;;;;;;5093179;28;20393;-72
2022/02/22 05:12:46;;;;;;;3.60;0.55;;;22.20;34.00;;;;;;5091959;28;20398;-72
2022/02/22 05:15:12;;;;;;;5.63;0.70;;;22.30;34.00;;;;;;5092566;28;20485;-72
2022/02/22 05:17:38;;;;;;;4.20;0.75;;;22.20;33.80;;;;;;5091659;28;20414;-72
2022/02/22 05:20:08;;;;;;;3.40;0.65;;;22.20;33.90;;;;;;5092876;28;20775;-72
2022/02/22 05:22:38;;;;;;;2.88;0.70;;;22.10;34.20;;;;;;5091616;28;20476;-72
2022/02/22 05:25:05;;;;;;;6.65;1.25;;;22.10;34.20;;;;;;5092718;28;20398;-72
2022/02/22 05:27:30;;;;;;;5.65;0.90;;;22.20;33.50;;;;;;5092636;28;20421;-72
2022/02/22 05:29:56;;;;;;;2.60;0.73;;;22.10;33.50;;;;;;5092915;28;20747;-72
2022/02/22 05:32:21;;;;;;;5.00;0.90;;;22.10;33.40;;;;;;5108881;28;20441;-72
2022/02/22 05:34:47;;;;;;;4.85;0.77;;;22.10;33.60;;;;;;5113274;28;20393;-72
2022/02/22 05:37:13;;;;;;;5.03;0.63;;;22.20;33.70;;;;;;5111508;28;20427;-72
2022/02/22 05:39:38;;;;;;;3.50;0.80;;;22.10;33.50;;;;;;5112097;28;20500;-72
2022/02/22 05:42:04;;;;;;;3.70;0.87;;;22.10;34.60;;;;;;5113119;28;20817;-72
2022/02/22 05:44:30;;;;;;;4.35;0.73;;;22.10;34.00;;;;;;5111444;28;20385;-72
2022/02/22 05:46:56;;;;;;;2.65;0.80;;;22.10;33.70;;;;;;5111705;28;20384;-72
2022/02/22 05:49:25;;;;;;;8.27;1.07;;;22.10;33.70;;;;;;5110635;28;20392;-72
2022/02/22 05:51:52;;;;;;;4.30;0.90;;;22.10;33.50;;;;;;5112156;28;20396;-72
2022/02/22 05:54:17;;;;;;;5.13;0.85;;;22.10;33.60;;;;;;5110977;28;20446;-71
2022/02/22 05:56:43;;;;;;;2.70;0.57;;;22.10;33.80;;;;;;5111649;28;20810;-72
2022/02/22 05:59:09;;;;;;;4.23;0.80;;;22.20;33.50;;;;;;5112036;28;20747;-72
2022/02/22 06:01:34;;;;;;;4.75;0.80;;;22.20;33.90;;;;;;5111184;28;20475;-72
2022/02/22 06:04:00;;;;;;;4.57;0.90;;;22.20;33.80;;;;;;5112542;28;20490;-72
2022/02/22 06:06:26;;;;;;;6.17;1.00;;;22.20;33.80;;;;;;5111010;28;20423;-72
2022/02/22 06:08:52;;;;;;;6.43;1.00;;;22.10;33.20;;;;;;5110807;28;20446;-73
2022/02/22 06:11:17;;;;;;;3.95;0.77;;;22.10;33.40;;;;;;5110530;28;20404;-72
2022/02/22 06:13:43;;;;;;;4.73;1.07;;;22.10;33.40;;;;;;5112025;28;20741;-72
2022/02/22 06:16:09;;;;;;;5.28;0.90;;;22.10;33.40;;;;;;5110901;28;20426;-72
2022/02/22 06:18:34;;;;;;;3.93;0.93;;;22.10;33.40;;;;;;5110812;28;20870;-73
2022/02/22 06:21:00;;;;;;;2.65;0.80;;;22.10;33.40;;;;;;5110981;28;20387;-73
2022/02/22 06:23:26;;;;;;;3.20;0.70;;;22.00;33.60;;;;;;5111769;28;20423;-73
2022/02/22 06:25:51;;;;;;;3.75;0.90;;;22.00;33.70;;;;;;5110899;28;20399;-73
2022/02/22 06:28:17;;;;;;;2.90;0.70;;;22.00;33.70;;;;;;5112021;28;20380;-73
2022/02/22 06:30:43;;;;;;;3.20;0.60;;;22.00;33.50;;;;;;5112162;28;20384;-73
2022/02/22 06:33:08;;;;;;;2.23;0.87;;;22.00;33.40;;;;;;5111869;28;20383;-73
2022/02/22 06:35:34;;;;;;;3.90;0.80;;;22.00;33.30;;;;;;5112041;28;20385;-73
2022/02/22 06:38:00;;;;;;;2.37;0.70;;;22.00;33.40;;;;;;5112043;28;20903;-73
2022/02/22 06:40:27;;;;;;;2.20;0.70;;;22.00;33.20;;;;;;5111917;28;20380;-73
2022/02/22 06:42:53;;;;;;;2.90;0.90;;;21.90;33.40;;;;;;5111572;28;20453;-73
2022/02/22 06:45:18;;;;;;;1.80;0.70;;;22.00;33.30;;;;;;5111215;28;20395;-73
2022/02/22 06:47:44;;;;;;;2.60;0.97;;;21.90;33.30;;;;;;5111994;28;20468;-72
2022/02/22 06:50:12;;;;;;;2.88;0.88;;;21.90;33.20;;;;;;5111878;28;20386;-73
2022/02/22 06:52:39;;;;;;;1.75;0.80;;;21.90;33.00;;;;;;5111874;28;20445;-73
2022/02/22 06:55:09;;;;;;;2.03;0.70;;;21.90;32.90;;;;;;5111677;28;20380;-73
2022/02/22 06:57:35;;;;;;;2.03;0.75;;;21.90;32.70;;;;;;5111874;28;20496;-73
2022/02/22 07:00:01;;;;;;;1.77;0.90;;;21.90;32.80;;;;;;5111781;28;20467;-73
2022/02/22 07:02:26;;;;;;;1.83;0.87;;;21.90;32.70;;;;;;5111842;28;20388;-73
2022/02/22 07:04:52;;;;;;;4.03;0.80;;;21.90;32.60;;;;;;5111764;28;20395;-73
2022/02/22 07:07:17;;;;;;;2.30;0.73;;;21.90;32.70;;;;;;5111159;28;20950;-73
2022/02/22 07:09:43;;;;;;;1.90;0.60;;;21.90;32.80;;;;;;5111852;28;20873;-73
2022/02/22 07:12:09;;;;;;;2.47;0.77;;;21.90;32.60;;;;;;5111702;28;20431;-73
2022/02/22 07:14:35;;;;;;;2.03;0.80;;;21.90;32.70;;;;;;5111842;28;20407;-73
2022/02/22 07:17:00;;;;;;;1.50;0.70;;;21.90;32.60;;;;;;5111584;28;20414;-73
2022/02/22 07:19:26;;;;;;;2.30;0.70;;;21.90;32.70;;;;;;5111165;28;20388;-73
2022/02/22 07:21:52;;;;;;;1.75;0.70;;;22.00;32.70;;;;;;5111711;28;20414;-73
2022/02/22 07:24:18;;;;;;;1.45;0.70;;;21.90;32.60;;;;;;5111612;28;20940;-73
2022/02/22 07:26:43;;;;;;;1.35;0.68;;;21.80;32.50;;;;;;5110325;28;20483;-73
2022/02/22 07:29:09;;;;;;;1.50;0.70;;;21.80;32.50;;;;;;5111244;28;20418;-73
2022/02/22 07:31:34;;;;;;;1.67;0.73;;;21.80;32.60;;;;;;5111292;28;20403;-73
2022/02/22 07:34:00;;;;;;;1.60;0.80;;;21.80;32.60;;;;;;5111466;28;20768;-73
2022/02/22 07:36:26;;;;;;;2.40;0.90;;;21.80;32.60;;;;;;5111500;28;20760;-73
2022/02/22 07:38:52;;;;;;;1.87;0.80;;;21.80;32.60;;;;;;5111635;28;20484;-73
2022/02/22 07:41:22;;;;;;;1.52;0.85;;;21.70;32.50;;;;;;5109517;28;20392;-71
2022/02/22 07:43:51;;;;;;;1.50;0.75;;;21.80;32.60;;;;;;5110183;28;20457;-72
2022/02/22 07:46:18;;;;;;;1.65;0.65;;;21.80;32.40;;;;;;5109662;28;20431;-72
2022/02/22 07:48:47;;;;;;;1.40;0.68;;;21.70;32.30;;;;;;5110132;28;20396;-73
2022/02/22 07:51:18;;;;;;;2.13;0.80;;;21.70;32.30;;;;;;5110996;28;20376;-73
2022/02/22 07:53:45;;;;;;;2.22;1.00;;;21.70;32.40;;;;;;5111392;28;20426;-73
2022/02/22 07:56:11;;;;;;;1.42;0.80;;;21.70;32.60;;;;;;5113936;28;20408;-73
2022/02/22 07:58:38;;;;;;;2.00;0.80;;;21.70;32.50;;;;;;5115081;28;20385;-73
2022/02/22 08:01:05;;;;;;;2.03;0.63;;;21.70;32.50;;;;;;5113773;28;20392;-73
2022/02/22 08:03:31;;;;;;;2.75;0.80;;;21.70;32.40;;;;;;5114463;28;20384;-72
2022/02/22 08:05:56;;;;;;;1.70;0.80;;;21.70;32.40;;;;;;5114794;28;20894;-73
2022/02/22 08:08:22;;;;;;;1.90;0.67;;;21.70;32.20;;;;;;5114839;28;20384;-73
2022/02/22 08:10:47;;;;;;;2.17;1.00;;;21.70;32.20;;;;;;5114897;28;20877;-73
2022/02/22 08:13:13;;;;;;;1.10;0.60;;;21.60;32.10;;;;;;5114239;28;20383;-73
2022/02/22 08:15:39;;;;;;;1.60;0.70;;;21.60;32.00;;;;;;5114666;28;20474;-73
2022/02/22 08:18:04;;;;;;;1.23;0.70;;;21.60;32.10;;;;;;5114683;28;20541;-73
2022/02/22 08:20:30;;;;;;;1.58;0.80;;;21.60;32.10;;;;;;5113472;28;20442;-73
2022/02/22 08:22:56;;;;;;;1.25;0.63;;;21.60;32.20;;;;;;5113342;28;20393;-73
2022/02/22 08:25:21;;;;;;;1.40;0.68;;;21.60;32.10;;;;;;5112706;28;20387;-73
2022/02/22 08:27:47;;;;;;;2.07;0.73;;;21.60;32.00;;;;;;5114468;28;20395;-73
2022/02/22 08:30:13;;;;;;;1.75;0.70;;;21.60;32.10;;;;;;5113172;28;20391;-73
2022/02/22 08:32:40;;;;;;;1.67;0.80;;;21.60;32.00;;;;;;5114466;28;20870;-73
2022/02/22 08:35:06;;;;;;;1.58;0.68;;;21.60;32.00;;;;;;5114368;28;20382;-73
2022/02/22 08:37:32;;;;;;;1.73;0.63;;;21.60;32.00;;;;;;5113606;28;20412;-72
2022/02/22 08:39:58;;;;;;;1.40;0.65;;;21.60;32.00;;;;;;5112991;28;20388;-72
2022/02/22 08:42:23;;;;;;;1.40;0.60;;;21.60;32.00;;;;;;5112835;28;20388;-72
2022/02/22 08:44:49;;;;;;;1.33;0.50;;;21.60;31.90;;;;;;5114028;28;20438;-72
2022/02/22 08:47:14;;;;;;;1.57;0.70;;;21.60;32.00;;;;;;5112440;28;20407;-72
2022/02/22 08:49:42;;;;;;;1.90;0.70;;;21.60;32.00;;;;;;5114112;28;20754;-72
2022/02/22 08:52:07;;;;;;;1.33;0.68;;;21.60;31.90;;;;;;5112641;28;20404;-72
2022/02/22 08:54:33;;;;;;;1.45;0.60;;;21.60;32.00;;;;;;5113721;27;20392;-72
2022/02/22 08:56:59;;;;;;;1.70;0.60;;;21.60;31.90;;;;;;5112702;28;20856;-72
2022/02/22 08:59:24;;;;;;;1.30;0.57;;;21.60;31.90;;;;;;5111999;28;20467;-72
2022/02/22 09:01:50;;;;;;;2.00;0.70;;;21.60;31.90;;;;;;5113651;27;20446;-71
2022/02/22 09:04:15;;;;;;;1.17;0.57;;;21.60;32.00;;;;;;5112111;28;20408;-72
2022/02/22 09:06:41;;;;;;;1.45;0.70;;;21.50;31.70;;;;;;5113415;28;20391;-72
2022/02/22 09:09:07;;;;;;;1.73;0.70;;;21.50;31.90;;;;;;5113637;28;20450;-72
2022/02/22 09:11:32;;;;;;;1.50;0.60;;;21.50;31.90;;;;;;5113149;28;20477;-72
2022/02/22 09:13:58;;;;;;;2.00;0.67;;;21.50;31.80;;;;;;5112413;28;20388;-71
2022/02/22 09:16:23;;;;;;;1.80;0.67;;;21.50;31.90;;;;;;5113423;28;20420;-71
2022/02/22 09:18:49;;;;;;;1.27;0.70;;;21.50;31.90;;;;;;5112022;28;20420;-72
2022/02/22 09:21:15;;;;;;;1.70;0.70;;;21.50;31.90;;;;;;5113132;28;20387;-71
2022/02/22 09:23:40;;;;;;;1.42;0.60;;;21.50;31.80;;;;;;5111989;28;20392;-71
2022/02/22 09:26:06;;;;;;;1.50;0.70;;;21.50;31.80;;;;;;5113354;28;20396;-71
2022/02/22 09:28:32;;;;;;;1.55;0.73;;;21.50;31.90;;;;;;5113423;28;20462;-71
2022/02/22 09:30:58;;;;;;;1.45;0.70;;;21.50;31.80;;;;;;5111821;28;20414;-72
2022/02/22 09:33:23;;;;;;;1.20;0.60;;;21.50;31.70;;;;;;5111297;28;20392;-72
2022/02/22 09:35:49;;;;;;;1.42;0.50;;;21.50;31.70;;;;;;5113187;28;20476;-71
2022/02/22 09:38:15;;;;;;;1.20;0.60;;;21.50;31.70;;;;;;5113136;28;20934;-72
2022/02/22 09:40:41;;;;;;;1.42;0.70;;;21.50;31.70;;;;;;5111783;28;20864;-72
2022/02/22 09:43:06;;;;;;;1.70;0.70;;;21.50;31.60;;;;;;5113060;28;20460;-72
2022/02/22 09:45:32;;;;;;;1.50;0.70;;;21.60;31.60;;;;;;5112041;28;20408;-72
2022/02/22 09:48:01;;;;;;;1.75;0.80;;;21.70;31.40;;;;;;5113058;28;20724;-72
2022/02/22 09:50:27;;;;;;;1.20;0.63;;;21.70;31.40;;;;;;5112870;28;20742;-72
2022/02/22 09:52:53;;;;;;;1.60;0.80;;;21.60;31.40;;;;;;5112913;28;20377;-72
2022/02/22 09:55:19;;;;;;;1.75;0.70;;;21.60;31.50;;;;;;5112171;28;20491;-72
2022/02/22 09:57:45;;;;;;;1.30;0.70;;;21.60;31.50;;;;;;5112727;28;20412;-72
2022/02/22 10:00:23;;;;;;;1.60;0.70;;;21.60;31.50;;;;;;5111093;28;20894;-72
2022/02/22 10:02:49;;;;;;;2.17;0.70;;;21.50;31.50;;;;;;5111408;28;20396;-72
2022/02/22 10:05:26;;;;;;;1.60;0.70;;;21.60;31.60;;;;;;5112101;28;20423;-72
2022/02/22 10:07:58;;;;;;;1.73;0.63;;;21.60;31.60;;;;;;5112565;28;20396;-72
2022/02/22 10:10:40;;;;;;;2.20;0.75;;;21.60;31.60;;;;;;5111235;28;20909;-72
2022/02/22 10:13:08;;;;;;;1.20;0.60;;;21.50;31.70;;;;;;5111213;28;20411;-71
2022/02/22 10:15:44;;;;;;;1.23;0.60;;;21.50;31.70;;;;;;5110777;28;20391;-71
2022/02/22 10:18:11;;;;;;;1.40;0.60;;;21.50;31.60;;;;;;5110407;28;20396;-72
2022/02/22 10:20:38;;;;;;;1.10;0.50;;;21.50;31.70;;;;;;5112418;28;20471;-71
2022/02/22 10:23:06;;;;;;;1.25;0.55;;;21.50;31.70;;;;;;5110988;28;20869;-72
2022/02/22 10:25:33;;;;;;;1.50;0.60;;;21.50;31.60;;;;;;5110492;28;20399;-72
2022/02/22 10:28:00;;;;;;;1.17;0.68;;;22.70;32.20;;;;;;5110993;28;20400;-72
2022/02/22 10:30:41;;;;;;;1.70;0.70;;;21.50;31.50;;;;;;5112217;28;20372;-73
2022/02/22 10:33:17;;;;;;;2.10;0.90;;;21.50;31.40;;;;;;5112225;28;20396;-72
2022/02/22 10:35:50;;;;;;;1.58;0.70;;;21.70;31.30;;;;;;5110533;28;20426;-72
2022/02/22 10:38:20;;;;;;;1.73;0.60;;;21.80;31.00;;;;;;5112074;28;20393;-72
2022/02/22 10:41:05;;;;;;;1.50;0.60;;;21.80;31.00;;;;;;5110846;28;20389;-72
2022/02/22 10:43:37;;;;;;;1.30;0.65;;;21.70;31.00;;;;;;5110333;28;20454;-71
2022/02/22 10:46:08;;;;;;;1.08;0.50;;;21.60;31.10;;;;;;5110634;28;20499;-72
2022/02/22 10:48:39;;;;;;;1.10;0.50;;;21.60;31.40;;;;;;5110000;28;20815;-72
2022/02/22 10:51:10;;;;;;;1.50;0.60;;;21.60;31.50;;;;;;5111905;28;20429;-72
2022/02/22 10:53:37;;;;;;;1.00;0.60;;;21.60;31.40;;;;;;5110151;28;20754;-72
2022/02/22 10:56:09;;;;;;;1.50;0.70;;;21.60;31.50;;;;;;5110592;28;20440;-72
2022/02/22 10:58:39;;;;;;;1.05;0.50;;;21.60;31.50;;;;;;5111878;28;20380;-72
2022/02/22 11:01:09;;;;;;;1.85;0.70;;;21.60;31.50;;;;;;5111894;28;20508;-71
2022/02/22 11:03:35;;;;;;;1.58;0.60;;;21.50;31.40;;;;;;5111592;28;20467;-72
2022/02/22 11:06:01;;;;;;;1.88;0.70;;;21.50;31.40;;;;;;5111816;28;20753;-72
2022/02/22 11:08:29;;;;;;;1.03;0.40;;;21.60;31.60;;;;;;5111818;28;20377;-72
2022/02/22 11:11:02;;;;;;;1.92;0.75;;;21.50;31.50;;;;;;5111869;28;20388;-72
2022/02/22 11:13:29;;;;;;;1.05;0.50;;;21.50;32.00;;;;;;5111226;28;20934;-71
2022/02/22 11:16:06;;;;;;;1.30;0.50;;;21.50;31.40;;;;;;5111705;28;20457;-71
2022/02/22 11:18:42;;;;;;;1.10;0.50;;;21.50;31.40;;;;;;5111752;28;20406;-73
2022/02/22 11:21:08;;;;;;;1.13;0.57;;;21.50;31.40;;;;;;5111552;28;20718;-72
2022/02/22 11:23:34;;;;;;;0.90;0.40;;;21.50;31.40;;;;;;5111291;28;20391;-72
2022/02/22 11:26:10;;;;;;;1.05;0.40;;;21.50;31.40;;;;;;5111654;28;20377;-71
2022/02/22 11:28:38;;;;;;;1.33;0.60;;;21.60;31.30;;;;;;5110560;28;20388;-72
2022/02/22 11:31:07;;;;;;;1.25;0.60;;;21.60;31.30;;;;;;5115641;28;20391;-72
2022/02/22 11:33:47;;;;;;;1.70;0.60;;;21.80;31.10;;;;;;5113737;28;20761;-72
2022/02/22 11:36:28;;;;;;;1.10;0.60;;;21.80;31.00;;;;;;5111584;28;20508;-72
2022/02/22 11:38:54;;;;;;;1.27;0.55;;;21.90;31.00;;;;;;5115636;28;20739;-72
2022/02/22 11:41:24;;;;;;;1.70;0.80;;;21.80;30.80;;;;;;5115107;28;20380;-71
2022/02/22 11:44:14;;;;;;;1.13;0.50;;;21.80;31.00;;;;;;5115478;28;20441;-72
2022/02/22 11:46:52;;;;;;;1.17;0.57;;;21.90;31.00;;;;;;5115390;28;20473;-72
2022/02/22 11:49:32;;;;;;;1.10;0.50;;;21.90;31.00;;;;;;5114013;28;20400;-72
2022/02/22 11:52:13;;;;;;;1.35;0.60;;;21.80;30.90;;;;;;5113924;28;20466;-72
2022/02/22 11:54:39;;;;;;;1.20;0.50;;;21.90;31.00;;;;;;5115196;28;20402;-72
2022/02/22 11:57:05;;;;;;;1.85;0.55;;;21.90;30.90;;;;;;5114988;28;20525;-71
2022/02/22 11:59:33;;;;;;;1.60;0.70;;;21.90;31.00;;;;;;5114658;28;20849;-72
2022/02/22 12:02:01;;;;;;;5.50;2.95;;;22.00;31.00;;;;;;5114970;28;20380;-71
2022/02/22 12:04:30;;;;;;;3.20;1.65;;;22.10;30.90;;;;;;5113602;28;20392;-72
2022/02/22 12:06:57;;;;;;;4.32;2.10;;;22.10;30.80;;;;;;5114928;27;20518;-72
2022/02/22 12:09:40;;;;;;;5.10;2.22;;;22.10;30.80;;;;;;5114565;28;20385;-72
2022/02/22 12:12:11;;;;;;;3.55;1.80;;;22.20;30.90;;;;;;5113382;28;20384;-71
2022/02/22 12:14:49;;;;;;;3.22;1.90;;;22.10;31.00;;;;;;5114743;28;20383;-72
2022/02/22 12:17:15;;;;;;;4.70;2.60;;;22.10;31.70;;;;;;5112866;28;20928;-72
2022/02/22 12:19:40;;;;;;;5.07;2.80;;;22.10;31.20;;;;;;5114201;28;20377;-71
2022/02/22 12:22:07;;;;;;;5.10;2.90;;;22.10;31.10;;;;;;5114572;28;20888;-72
2022/02/22 12:24:33;;;;;;;5.10;2.63;;;22.00;31.20;;;;;;5114520;28;20381;-72
2022/02/22 12:27:13;;;;;;;4.63;2.72;;;22.00;31.30;;;;;;5114469;28;20388;-72
2022/02/22 12:29:39;;;;;;;5.18;2.65;;;22.00;31.40;;;;;;5114012;28;20479;-72
2022/02/22 12:32:06;;;;;;;4.40;2.93;;;22.00;31.40;;;;;;5114333;28;20387;-71
2022/02/22 12:34:32;;;;;;;4.88;2.70;;;22.10;31.40;;;;;;5114343;28;20384;-71
2022/02/22 12:37:00;;;;;;;4.93;2.77;;;22.20;31.30;;;;;;5113930;28;20413;-72
2022/02/22 12:39:29;;;;;;;4.75;2.53;;;22.20;31.20;;;;;;5113745;28;20450;-73
2022/02/22 12:41:59;;;;;;;5.30;2.80;;;22.10;31.30;;;;;;5113535;28;20393;-71
2022/02/22 12:44:27;;;;;;;5.03;2.60;;;22.10;31.30;;;;;;5113641;28;20491;-71
2022/02/22 12:46:56;;;;;;;4.03;2.45;;;22.10;31.20;;;;;;5114220;28;20381;-72